createdAt,value
2019-02-18T00:01:27.636Z,43
2019-02-18T00:11:28.551Z,44
2019-02-18T00:21:28.759Z,44
2019-02-18T00:31:28.579Z,44
2019-02-18T00:41:29.861Z,43
2019-02-18T00:51:28.575Z,43
2019-02-18T01:01:29.023Z,43
2019-02-18T01:11:27.879Z,44
2019-02-18T01:21:28.490Z,43
2019-02-18T01:31:28.062Z,44
2019-02-18T01:41:27.756Z,45
2019-02-18T01:51:28.927Z,44
2019-02-18T02:01:28.324Z,44
2019-02-18T02:11:28.011Z,44
2019-02-18T02:21:29.452Z,43
2019-02-18T02:31:34.665Z,44
2019-02-18T02:41:28.400Z,45
2019-02-18T02:51:28.553Z,45
2019-02-18T03:01:28.833Z,45
2019-02-18T03:11:28.752Z,45
2019-02-18T03:21:28.342Z,45
2019-02-18T03:31:28.041Z,45
2019-02-18T03:41:28.293Z,45
2019-02-18T03:51:30.901Z,44
2019-02-18T04:01:27.472Z,44
2019-02-18T04:11:28.022Z,45
2019-02-18T04:21:28.419Z,45
2019-02-18T04:31:28.606Z,45
2019-02-18T04:41:28.575Z,46
2019-02-18T04:51:28.948Z,45
2019-02-18T05:01:27.593Z,45
2019-02-18T05:11:28.229Z,46
2019-02-18T05:21:29.275Z,44
2019-02-18T05:31:27.665Z,45
2019-02-18T05:41:31.928Z,44
2019-02-18T05:51:32.952Z,44
2019-02-18T06:01:27.582Z,45
2019-02-18T06:11:28.933Z,44
2019-02-18T06:21:28.533Z,45
2019-02-18T06:31:28.641Z,45
2019-02-18T06:41:28.373Z,45
2019-02-18T06:51:29.698Z,45
2019-02-18T07:01:28.704Z,45
2019-02-18T07:11:35.247Z,44
2019-02-18T07:21:28.253Z,45
2019-02-18T07:31:29.532Z,45
2019-02-18T07:41:28.533Z,46
2019-02-18T07:51:28.400Z,45
2019-02-18T08:01:28.181Z,45
2019-02-18T08:11:28.610Z,44
2019-02-18T08:21:30.450Z,43
2019-02-18T08:31:29.322Z,43
2019-02-18T08:41:28.793Z,43
2019-02-18T08:51:28.727Z,45
2019-02-18T09:01:28.318Z,44
2019-02-18T09:11:28.647Z,42
2019-02-18T09:21:28.658Z,43
2019-02-18T09:31:31.167Z,42
2019-02-18T09:41:28.852Z,43
2019-02-18T09:51:28.832Z,44
2019-02-18T10:01:29.639Z,43
2019-02-18T10:11:29.273Z,43
2019-02-18T10:21:28.230Z,43
2019-02-18T10:31:28.897Z,41
2019-02-18T10:41:27.779Z,43
2019-02-18T10:51:29.286Z,42
2019-02-18T11:01:29.114Z,42
2019-02-18T11:11:33.832Z,42
2019-02-18T11:21:33.308Z,42
2019-02-18T11:31:33.659Z,43
2019-02-18T11:41:35.043Z,43
2019-02-18T11:51:29.580Z,41
2019-02-18T12:01:30.371Z,42
2019-02-18T12:11:39.261Z,42
2019-02-18T12:21:29.622Z,41
2019-02-18T12:31:29.049Z,41
2019-02-18T12:41:28.024Z,41
2019-02-18T12:51:28.885Z,41
2019-02-18T13:01:29.813Z,41
2019-02-18T13:11:29.280Z,40
2019-02-18T13:21:28.969Z,40
2019-02-18T13:31:27.903Z,40
2019-02-18T13:41:28.477Z,41
2019-02-18T13:51:28.454Z,40
2019-02-18T14:01:33.627Z,40
2019-02-18T14:11:28.371Z,40
2019-02-18T14:21:34.546Z,40
2019-02-18T14:31:34.032Z,40
2019-02-18T14:41:33.264Z,40
2019-02-18T14:51:34.557Z,39
2019-02-18T15:01:28.942Z,39
2019-02-18T15:11:29.366Z,39
2019-02-18T15:21:29.184Z,39
2019-02-18T15:31:28.340Z,40
2019-02-18T15:41:28.497Z,40
2019-02-18T15:51:28.685Z,40
2019-02-18T16:01:30.270Z,39
2019-02-18T16:11:29.073Z,40
2019-02-18T16:21:28.481Z,40
2019-02-18T16:31:32.440Z,41
2019-02-18T16:41:29.599Z,40
2019-02-18T16:51:28.398Z,40
2019-02-18T17:01:29.199Z,40
2019-02-18T17:11:29.467Z,41
2019-02-18T17:21:28.643Z,41
2019-02-18T17:31:28.382Z,40
2019-02-18T17:41:29.565Z,41
2019-02-18T17:51:28.709Z,42
2019-02-18T18:01:28.737Z,42
2019-02-18T18:11:28.956Z,42
2019-02-18T18:21:27.853Z,41
2019-02-18T18:31:30.862Z,41
2019-02-18T18:41:29.349Z,41
2019-02-18T18:51:29.506Z,41
2019-02-18T19:01:29.715Z,41
2019-02-18T19:11:30.099Z,41
2019-02-18T19:21:28.442Z,42
2019-02-18T19:31:31.177Z,41
2019-02-18T21:21:29.909Z,42
2019-02-18T21:31:34.190Z,44
2019-02-18T21:41:35.058Z,43
2019-02-18T21:51:34.246Z,43
2019-02-18T22:01:27.707Z,44
2019-02-18T22:11:31.619Z,43
2019-02-18T22:21:29.110Z,44
2019-02-18T22:31:27.890Z,44
2019-02-18T22:41:27.503Z,44
2019-02-18T22:51:28.151Z,44
2019-02-18T23:01:31.158Z,43
2019-02-18T23:11:31.574Z,43
2019-02-18T23:21:28.907Z,43
2019-02-18T23:31:27.605Z,44
2019-02-18T23:41:28.830Z,43
2019-02-18T23:51:29.560Z,44
